createdAt,value
2022-10-29T00:01:14.094Z,100582.56
2022-10-29T00:03:42.644Z,100580.78
2022-10-29T00:06:15.063Z,100572.06
2022-10-29T00:08:44.249Z,100572.88
2022-10-29T00:11:15.881Z,100580.78
2022-10-29T00:13:45.063Z,100567.63
2022-10-29T00:16:15.493Z,100569.34
2022-10-29T00:18:44.527Z,100581.63
2022-10-29T00:21:17.654Z,100586.00
2022-10-29T00:23:46.318Z,100577.19
2022-10-29T00:26:15.675Z,100564.91
2022-10-29T00:28:44.184Z,100563.13
2022-10-29T00:31:15.777Z,100563.13
2022-10-29T00:33:44.573Z,100571.84
2022-10-29T00:36:17.013Z,100570.97
2022-10-29T00:38:46.225Z,100569.19
2022-10-29T00:41:19.350Z,100578.84
2022-10-29T00:43:50.839Z,100579.69
2022-10-29T00:46:25.818Z,100581.41
2022-10-29T00:48:57.611Z,100591.03
2022-10-29T00:51:28.598Z,100579.63
2022-10-29T00:53:59.961Z,100575.22
2022-10-29T00:56:30.692Z,100569.13
2022-10-29T00:58:59.317Z,100577.88
2022-10-29T01:01:27.936Z,100563.84
2022-10-29T01:03:56.585Z,100565.56
2022-10-29T01:06:27.016Z,100561.19
2022-10-29T01:08:55.628Z,100564.66
2022-10-29T01:11:36.786Z,100557.66
2022-10-29T01:14:24.830Z,100562.91
2022-10-29T01:17:03.265Z,100555.88
2022-10-29T01:20:11.123Z,100552.31
2022-10-29T01:22:45.934Z,100552.31
2022-10-29T01:25:42.974Z,100556.63
2022-10-29T01:28:26.739Z,100564.53
2022-10-29T01:31:14.035Z,100561.00
2022-10-29T01:33:49.348Z,100560.09
2022-10-29T01:36:27.151Z,100550.50
2022-10-29T01:39:06.251Z,100549.56
2022-10-29T01:41:44.902Z,100546.00
2022-10-29T01:44:29.131Z,100540.75
2022-10-29T01:47:02.515Z,100534.63
2022-10-29T01:49:38.060Z,100538.09
2022-10-29T01:52:09.078Z,100533.69
2022-10-29T01:54:42.195Z,100529.28
2022-10-29T01:57:32.706Z,100529.22
2022-10-29T02:00:06.609Z,100521.28
2022-10-29T02:03:08.698Z,100511.63
2022-10-29T02:05:46.902Z,100518.63
2022-10-29T02:08:23.055Z,100504.63
2022-10-29T02:10:58.027Z,100504.56
2022-10-29T02:13:33.204Z,100513.28
2022-10-29T02:16:05.537Z,100513.28
2022-10-29T02:18:42.278Z,100512.34
2022-10-29T02:21:10.782Z,100507.09
2022-10-29T02:23:39.376Z,100506.19
2022-10-29T02:26:07.690Z,100502.66
2022-10-29T02:28:36.178Z,100504.41
2022-10-29T02:31:04.636Z,100513.13
2022-10-29T02:33:33.302Z,100506.09
2022-10-29T02:36:03.452Z,100502.56
2022-10-29T02:38:31.905Z,100492.88
2022-10-29T02:41:00.258Z,100495.50
2022-10-29T02:43:28.611Z,100493.72
2022-10-29T02:46:17.499Z,100492.78
2022-10-29T02:48:46.161Z,100489.28
2022-10-29T02:51:16.659Z,100490.13
2022-10-29T02:53:45.399Z,100488.34
2022-10-29T02:56:13.805Z,100486.56
2022-10-29T02:58:42.301Z,100479.53
2022-10-29T03:01:10.740Z,100484.78
2022-10-29T03:03:39.155Z,100482.16
2022-10-29T03:06:15.362Z,100474.25
2022-10-29T03:08:44.005Z,100477.72
2022-10-29T03:11:12.685Z,100475.03
2022-10-29T03:13:41.363Z,100485.53
2022-10-29T03:16:10.039Z,100475.03
2022-10-29T03:18:38.737Z,100475.91
2022-10-29T03:21:07.395Z,100482.81
2022-10-29T03:23:37.197Z,100478.44
2022-10-29T03:26:06.046Z,100479.28
2022-10-29T03:28:34.476Z,100489.75
2022-10-29T03:31:03.480Z,100493.22
2022-10-29T03:33:32.165Z,100494.06
2022-10-29T03:36:01.267Z,100487.03
2022-10-29T03:38:30.248Z,100473.94
2022-10-29T03:41:00.157Z,100480.00
2022-10-29T03:43:28.742Z,100481.75
2022-10-29T03:45:59.039Z,100479.09
2022-10-29T03:48:27.417Z,100472.91
2022-10-29T03:50:57.792Z,100464.16
2022-10-29T03:53:27.562Z,100461.53
2022-10-29T03:55:57.736Z,100460.59
2022-10-29T03:58:28.151Z,100471.94
2022-10-29T04:01:02.797Z,100478.91
2022-10-29T04:03:33.790Z,100478.91
2022-10-29T04:06:09.557Z,100482.34
2022-10-29T04:08:38.401Z,100470.94
2022-10-29T04:11:08.159Z,100473.56
2022-10-29T04:13:37.878Z,100465.66
2022-10-29T04:16:06.977Z,100479.63
2022-10-29T04:18:35.860Z,100466.44
2022-10-29T04:22:31.935Z,100465.59
2022-10-29T04:29:36.198Z,100444.53
2022-10-29T04:32:04.886Z,100439.25
2022-10-29T04:34:33.273Z,100431.34
2022-10-29T04:37:01.663Z,100434.84
2022-10-29T04:39:30.020Z,100437.44
2022-10-29T04:41:58.436Z,100440.91
2022-10-29T04:44:26.954Z,100429.53
2022-10-29T04:46:56.797Z,100433.03
2022-10-29T04:49:25.296Z,100442.59
2022-10-29T04:51:53.763Z,100456.53
2022-10-29T04:54:22.149Z,100464.34
2022-10-29T04:56:50.542Z,100464.34
2022-10-29T04:59:19.078Z,100451.19
2022-10-29T05:01:47.387Z,100443.28
2022-10-29T05:04:17.652Z,100427.50
2022-10-29T05:06:46.075Z,100425.72
2022-10-29T05:09:15.611Z,100423.94
2022-10-29T05:11:44.458Z,100422.19
2022-10-29T05:14:12.878Z,100425.69
2022-10-29T05:16:41.327Z,100409.94
2022-10-29T05:19:09.727Z,100408.19
2022-10-29T05:21:40.102Z,100391.63
2022-10-29T05:24:09.275Z,100389.00
2022-10-29T05:26:37.837Z,100376.75
2022-10-29T05:29:06.166Z,100383.75
2022-10-29T05:31:34.577Z,100381.97
2022-10-29T05:34:03.057Z,100376.75
2022-10-29T05:36:31.434Z,100390.69
2022-10-29T05:39:02.122Z,100392.47
2022-10-29T05:41:30.497Z,100412.53
2022-10-29T05:43:59.324Z,100405.50
2022-10-29T05:46:27.734Z,100406.34
2022-10-29T05:48:56.362Z,100408.09
2022-10-29T05:51:24.952Z,100400.19
2022-10-29T05:53:53.227Z,100401.06
2022-10-29T05:56:23.067Z,100388.84
2022-10-29T05:58:51.917Z,100385.31
2022-10-29T06:01:20.397Z,100392.28
2022-10-29T06:03:49.091Z,100399.25
2022-10-29T06:06:17.605Z,100397.50
2022-10-29T06:08:46.042Z,100399.25
2022-10-29T06:11:14.525Z,100401.88
2022-10-29T06:13:44.326Z,100405.31
2022-10-29T06:16:12.782Z,100396.56
2022-10-29T06:18:41.279Z,100393.94
2022-10-29T06:21:09.677Z,100391.28
2022-10-29T06:23:38.128Z,100395.63
2022-10-29T06:26:06.864Z,100400.00
2022-10-29T06:28:35.286Z,100388.63
2022-10-29T06:31:05.342Z,100393.84
2022-10-29T06:33:33.871Z,100391.25
2022-10-29T06:36:02.529Z,100384.28
2022-10-29T06:38:31.007Z,100386.00
2022-10-29T06:40:59.595Z,100390.34
2022-10-29T06:43:28.021Z,100394.69
2022-10-29T06:45:56.824Z,100392.09
2022-10-29T06:48:28.413Z,100392.09
2022-10-29T06:51:00.315Z,100388.63
2022-10-29T06:53:28.865Z,100383.34
2022-10-29T06:55:57.196Z,100387.72
2022-10-29T06:58:25.758Z,100390.34
2022-10-29T07:00:54.218Z,100392.09
2022-10-29T07:03:23.359Z,100395.63
2022-10-29T07:05:58.614Z,100395.63
2022-10-29T07:08:28.896Z,100394.78
2022-10-29T07:10:58.130Z,100381.69
2022-10-29T07:13:26.769Z,100383.47
2022-10-29T07:15:55.214Z,100381.69
2022-10-29T07:18:24.116Z,100384.34
2022-10-29T07:20:52.528Z,100393.13
2022-10-29T07:23:22.288Z,100388.75
2022-10-29T07:25:54.434Z,100393.16
2022-10-29T07:28:25.543Z,100394.88
2022-10-29T07:31:00.253Z,100390.59
2022-10-29T07:33:30.232Z,100402.78
2022-10-29T07:36:00.441Z,100404.56
2022-10-29T07:38:30.276Z,100408.94
2022-10-29T07:40:58.656Z,100408.03
2022-10-29T07:43:27.089Z,100405.47
2022-10-29T07:45:55.654Z,100402.81
2022-10-29T07:48:24.077Z,100401.06
2022-10-29T07:51:02.485Z,100399.38
2022-10-29T07:53:32.720Z,100402.00
2022-10-29T07:56:01.285Z,100401.13
2022-10-29T07:58:29.645Z,100399.47
2022-10-29T08:01:01.381Z,100394.22
2022-10-29T08:03:29.779Z,100404.72
2022-10-29T08:05:58.708Z,100395.09
2022-10-29T08:08:27.443Z,100398.63
2022-10-29T08:11:01.502Z,100406.53
2022-10-29T08:13:30.299Z,100406.53
2022-10-29T08:15:58.909Z,100400.47
2022-10-29T08:18:27.363Z,100407.44
2022-10-29T08:20:55.730Z,100404.81
2022-10-29T08:23:24.159Z,100398.72
2022-10-29T08:25:52.550Z,100396.13
2022-10-29T08:28:25.651Z,100387.41
2022-10-29T08:30:54.600Z,100397.97
2022-10-29T08:33:23.039Z,100394.47
2022-10-29T08:35:52.661Z,100396.25
2022-10-29T08:38:23.311Z,100383.16
2022-10-29T08:41:17.167Z,100384.06
2022-10-29T08:44:25.887Z,100391.91
2022-10-29T08:47:01.260Z,100380.63
2022-10-29T08:49:39.279Z,100383.28
2022-10-29T08:52:14.009Z,100384.22
2022-10-29T08:54:46.210Z,100386.88
2022-10-29T08:57:17.752Z,100385.19
2022-10-29T09:00:05.414Z,100374.72
2022-10-29T09:02:34.067Z,100367.81
2022-10-29T09:05:02.873Z,100368.72
2022-10-29T09:08:02.325Z,100375.72
2022-10-29T09:10:39.490Z,100375.78
2022-10-29T09:13:32.359Z,100372.31
2022-10-29T09:16:27.824Z,100372.38
2022-10-29T09:19:15.489Z,100380.38
2022-10-29T09:21:54.017Z,100367.41
2022-10-29T09:24:29.804Z,100373.63
2022-10-29T09:27:00.637Z,100365.84
2022-10-29T09:30:05.199Z,100362.44
2022-10-29T09:32:40.127Z,100360.81
2022-10-29T09:35:15.583Z,100368.78
2022-10-29T09:37:50.701Z,100367.13
2022-10-29T09:40:31.889Z,100358.50
2022-10-29T09:43:02.980Z,100362.97
2022-10-29T09:45:45.227Z,100362.19
2022-10-29T09:48:21.752Z,100363.19
2022-10-29T09:50:59.695Z,100364.09
2022-10-29T09:53:28.303Z,100358.88
2022-10-29T09:55:56.697Z,100361.53
2022-10-29T09:58:28.852Z,100362.50
2022-10-29T10:00:58.172Z,100361.66
2022-10-29T10:03:35.312Z,100360.88
2022-10-29T10:06:07.199Z,100347.75
2022-10-29T10:08:45.304Z,100345.19
2022-10-29T10:11:21.608Z,100331.22
2022-10-29T10:13:55.016Z,100330.38
2022-10-29T10:16:27.875Z,100338.28
2022-10-29T10:18:58.298Z,100334.81
2022-10-29T10:21:29.320Z,100339.19
2022-10-29T10:23:59.226Z,100344.50
2022-10-29T10:26:39.396Z,100345.41
2022-10-29T10:29:17.179Z,100350.66
2022-10-29T10:31:47.254Z,100346.28
2022-10-29T10:34:20.594Z,100341.06
2022-10-29T10:36:55.537Z,100339.34
2022-10-29T10:39:31.212Z,100343.75
2022-10-29T10:42:03.402Z,100337.63
2022-10-29T10:44:32.959Z,100328.03
2022-10-29T10:47:08.597Z,100327.22
2022-10-29T10:49:40.133Z,100324.59
2022-10-29T10:52:18.104Z,100328.19
2022-10-29T10:54:48.757Z,100329.13
2022-10-29T10:57:23.941Z,100320.41
2022-10-29T11:00:00.981Z,100324.88
2022-10-29T11:02:40.892Z,100317.03
2022-10-29T11:05:19.608Z,100315.34
2022-10-29T11:08:01.354Z,100312.72
2022-10-29T11:10:36.497Z,100309.25
2022-10-29T11:13:14.128Z,100318.06
2022-10-29T11:15:52.224Z,100315.44
2022-10-29T11:18:26.106Z,100319.03
2022-10-29T11:21:06.049Z,100312.91
2022-10-29T11:23:47.281Z,100319.97
2022-10-29T11:26:21.467Z,100319.09
2022-10-29T11:28:56.836Z,100320.88
2022-10-29T11:31:33.542Z,100313.91
2022-10-29T11:34:12.404Z,100306.06
2022-10-29T11:36:47.162Z,100308.75
2022-10-29T11:39:21.718Z,100293.00
2022-10-29T11:41:56.717Z,100286.03
2022-10-29T11:44:25.556Z,100282.56
2022-10-29T11:47:13.688Z,100286.94
2022-10-29T11:49:56.600Z,100286.09
2022-10-29T11:52:35.857Z,100293.16
2022-10-29T11:55:20.383Z,100280.88
2022-10-29T11:57:56.356Z,100277.47
2022-10-29T12:00:26.258Z,100281.84
2022-10-29T12:03:17.909Z,100275.75
2022-10-29T12:05:57.354Z,100283.69
2022-10-29T12:08:49.356Z,100278.44
2022-10-29T12:11:26.530Z,100281.09
2022-10-29T12:14:08.685Z,100276.78
2022-10-29T12:16:50.701Z,100278.59
2022-10-29T12:19:33.321Z,100277.69
2022-10-29T12:22:18.201Z,100274.25
2022-10-29T12:25:25.257Z,100266.38
2022-10-29T12:28:19.150Z,100280.44
2022-10-29T12:31:07.289Z,100272.59
2022-10-29T12:33:43.759Z,100263.84
2022-10-29T12:36:22.681Z,100265.63
2022-10-29T12:38:56.843Z,100262.16
2022-10-29T12:41:32.768Z,100263.97
2022-10-29T12:44:10.098Z,100258.69
2022-10-29T12:46:42.665Z,100261.31
2022-10-29T12:49:19.457Z,100276.25
2022-10-29T12:51:54.554Z,100258.75
2022-10-29T12:54:35.686Z,100258.72
2022-10-29T12:57:29.419Z,100252.63
2022-10-29T12:59:58.624Z,100255.25
2022-10-29T13:02:45.756Z,100257.00
2022-10-29T13:05:39.653Z,100247.41
2022-10-29T13:08:36.244Z,100236.00
2022-10-29T13:11:25.300Z,100240.38
2022-10-29T13:14:07.827Z,100234.25
2022-10-29T13:16:36.987Z,100229.94
2022-10-29T13:19:19.445Z,100223.84
2022-10-29T13:22:54.900Z,100217.69
2022-10-29T13:25:48.682Z,100226.50
2022-10-29T13:29:01.617Z,100216.00
2022-10-29T13:31:49.182Z,100216.88
2022-10-29T13:34:59.629Z,100223.06
2022-10-29T13:37:53.220Z,100209.00
2022-10-29T13:41:02.819Z,100204.69
2022-10-29T13:43:33.198Z,100194.16
2022-10-29T13:46:35.242Z,100198.56
2022-10-29T13:49:12.159Z,100202.97
2022-10-29T13:51:52.256Z,100196.84
2022-10-29T13:54:35.477Z,100199.53
2022-10-29T13:57:15.240Z,100200.38
2022-10-29T13:59:49.552Z,100193.41
2022-10-29T14:02:49.093Z,100189.91
2022-10-29T14:05:22.460Z,100187.28
2022-10-29T14:07:57.163Z,100194.31
2022-10-29T14:13:23.564Z,100182.88
2022-10-29T14:16:08.393Z,100182.00
2022-10-29T14:18:40.694Z,100179.34
2022-10-29T14:21:16.946Z,100176.72
2022-10-29T14:23:58.343Z,100173.22
2022-10-29T14:26:28.408Z,100178.47
2022-10-29T14:28:57.421Z,100173.22
2022-10-29T14:31:28.176Z,100170.56
2022-10-29T14:34:00.791Z,100172.34
2022-10-29T14:36:37.600Z,100171.47
2022-10-29T14:39:13.803Z,100163.53
2022-10-29T14:41:42.530Z,100165.31
2022-10-29T14:44:17.759Z,100166.22
2022-10-29T14:47:04.640Z,100162.69
2022-10-29T14:49:39.427Z,100163.53
2022-10-29T14:52:18.584Z,100165.31
2022-10-29T14:54:50.681Z,100165.28
2022-10-29T14:57:23.217Z,100169.66
2022-10-29T14:59:56.903Z,100166.13
2022-10-29T15:02:38.013Z,100160.84
2022-10-29T15:05:25.860Z,100160.81
2022-10-29T15:08:06.846Z,100165.22
2022-10-29T15:10:47.499Z,100163.41
2022-10-29T15:13:24.595Z,100160.75
2022-10-29T15:15:56.721Z,100160.75
2022-10-29T15:18:26.895Z,100154.59
2022-10-29T15:23:30.195Z,100149.31
2022-10-29T15:26:04.238Z,100143.16
2022-10-29T15:28:39.089Z,100144.03
2022-10-29T15:31:07.702Z,100141.38
2022-10-29T15:33:38.269Z,100143.16
2022-10-29T15:36:09.390Z,100146.63
2022-10-29T15:39:20.851Z,100150.13
2022-10-29T15:41:51.377Z,100145.72
2022-10-29T15:44:38.856Z,100147.47
2022-10-29T15:47:28.521Z,100142.19
2022-10-29T15:49:56.868Z,100148.31
2022-10-29T15:52:33.703Z,100140.41
2022-10-29T15:55:03.788Z,100139.53
2022-10-29T15:57:32.520Z,100138.66
2022-10-29T16:00:06.351Z,100148.31
2022-10-29T16:02:35.155Z,100147.38
2022-10-29T16:05:03.541Z,100150.00
2022-10-29T16:07:34.104Z,100157.03
2022-10-29T16:10:02.790Z,100149.97
2022-10-29T16:12:32.135Z,100152.59
2022-10-29T16:15:00.461Z,100151.72
2022-10-29T16:17:30.197Z,100142.91
2022-10-29T16:19:58.861Z,100146.41
2022-10-29T16:22:30.474Z,100137.63
2022-10-29T16:25:00.278Z,100135.88
2022-10-29T16:27:28.744Z,100135.84
2022-10-29T16:29:57.441Z,100132.34
2022-10-29T16:32:26.323Z,100137.59
2022-10-29T16:34:54.852Z,100142.84
2022-10-29T16:37:23.263Z,100148.09
2022-10-29T16:39:51.703Z,100144.56
2022-10-29T16:42:31.390Z,100138.38
2022-10-29T16:44:59.902Z,100148.00
2022-10-29T16:47:28.537Z,100140.97
2022-10-29T16:49:57.196Z,100141.88
2022-10-29T16:52:29.535Z,100133.03
2022-10-29T16:54:58.714Z,100126.91
2022-10-29T16:57:29.469Z,100128.63
2022-10-29T17:00:00.276Z,100115.44
2022-10-29T17:02:28.956Z,100130.31
2022-10-29T17:04:57.428Z,100122.44
2022-10-29T17:07:26.052Z,100118.03
2022-10-29T17:09:54.522Z,100119.78
2022-10-29T17:12:23.316Z,100126.78
2022-10-29T17:14:52.986Z,100120.66
2022-10-29T17:17:21.522Z,100118.88
2022-10-29T17:19:50.103Z,100111.84
2022-10-29T17:22:18.516Z,100107.47
2022-10-29T17:24:47.016Z,100116.22
2022-10-29T17:27:15.595Z,100117.09
2022-10-29T17:29:44.131Z,100114.44
2022-10-29T17:32:14.051Z,100115.31
2022-10-29T17:34:42.697Z,100119.69
2022-10-29T17:37:11.902Z,100120.56
2022-10-29T17:39:40.535Z,100110.03
2022-10-29T17:42:09.028Z,100120.56
2022-10-29T17:44:37.507Z,100116.19
2022-10-29T17:47:05.941Z,100113.56
2022-10-29T17:49:35.983Z,100110.06
2022-10-29T17:52:05.182Z,100110.03
2022-10-29T17:54:35.157Z,100105.63
2022-10-29T17:57:04.003Z,100105.63
2022-10-29T17:59:32.757Z,100109.13
2022-10-29T18:02:01.471Z,100105.63
2022-10-29T18:04:32.906Z,100112.63
2022-10-29T18:07:03.046Z,100114.34
2022-10-29T18:09:31.656Z,100107.31
2022-10-29T18:11:59.984Z,100118.69
2022-10-29T18:14:28.393Z,100114.34
2022-10-29T18:16:56.918Z,100121.31
2022-10-29T18:19:25.251Z,100116.06
2022-10-29T18:21:53.732Z,100121.31
2022-10-29T18:24:24.218Z,100119.56
2022-10-29T18:26:52.695Z,100131.81
2022-10-29T18:29:21.060Z,100123.06
2022-10-29T18:31:49.432Z,100126.50
2022-10-29T18:34:18.140Z,100120.38
2022-10-29T18:36:47.555Z,100121.25
2022-10-29T18:39:15.983Z,100113.31
2022-10-29T18:41:45.810Z,100120.31
2022-10-29T18:44:14.166Z,100121.16
2022-10-29T18:46:42.605Z,100116.78
2022-10-29T18:49:13.016Z,100121.13
2022-10-29T18:51:41.490Z,100112.34
2022-10-29T18:54:12.842Z,100105.34
2022-10-29T18:56:41.722Z,100100.03
2022-10-29T18:59:13.245Z,100098.28
2022-10-29T19:01:41.962Z,100087.75
2022-10-29T19:04:15.526Z,100077.22
2022-10-29T19:06:44.365Z,100080.72
2022-10-29T19:09:13.354Z,100079.84
2022-10-29T19:11:42.096Z,100094.75
2022-10-29T19:14:15.171Z,100088.59
2022-10-29T19:16:43.608Z,100084.19
2022-10-29T19:19:16.010Z,100084.19
2022-10-29T19:21:48.644Z,100091.22
2022-10-29T19:24:18.070Z,100088.56
2022-10-29T19:26:46.503Z,100100.78
2022-10-29T19:29:16.464Z,100099.03
2022-10-29T19:31:46.806Z,100097.28
2022-10-29T19:34:15.557Z,100101.66
2022-10-29T19:36:44.063Z,100091.13
2022-10-29T19:39:12.468Z,100083.25
2022-10-29T19:41:41.265Z,100082.38
2022-10-29T19:44:10.151Z,100080.63
2022-10-29T19:46:39.984Z,100087.63
2022-10-29T19:49:08.534Z,100092.81
2022-10-29T19:51:37.094Z,100076.16
2022-10-29T19:54:07.223Z,100085.78
2022-10-29T19:56:35.909Z,100083.13
2022-10-29T19:59:05.240Z,100085.75
2022-10-29T20:01:33.916Z,100094.50
2022-10-29T20:04:04.530Z,100087.47
2022-10-29T20:06:34.074Z,100099.72
2022-10-29T20:09:02.677Z,100093.63
2022-10-29T20:11:31.169Z,100100.56
2022-10-29T20:13:59.638Z,100097.94
2022-10-29T20:16:28.172Z,100103.16
2022-10-29T20:18:56.710Z,100094.41
2022-10-29T20:21:26.628Z,100099.66
2022-10-29T20:23:56.314Z,100103.22
2022-10-29T20:26:25.032Z,100103.19
2022-10-29T20:28:53.528Z,100100.56
2022-10-29T20:31:30.582Z,100107.59
2022-10-29T20:34:01.458Z,100101.44
2022-10-29T20:36:33.491Z,100110.22
2022-10-29T20:39:02.598Z,100104.09
2022-10-29T20:41:31.346Z,100101.50
2022-10-29T20:44:02.150Z,100104.13
2022-10-29T20:46:30.919Z,100093.63
2022-10-29T20:48:59.492Z,100097.97
2022-10-29T20:51:28.679Z,100087.47
2022-10-29T20:53:58.443Z,100094.50
2022-10-29T20:56:28.632Z,100100.63
2022-10-29T20:58:57.177Z,100098.88
2022-10-29T21:01:26.624Z,100098.88
2022-10-29T21:03:55.494Z,100108.47
2022-10-29T21:06:24.418Z,100107.59
2022-10-29T21:08:54.391Z,100109.38
2022-10-29T21:11:25.154Z,100104.13
2022-10-29T21:13:53.562Z,100112.00
2022-10-29T21:16:24.160Z,100109.38
2022-10-29T21:18:55.127Z,100112.00
2022-10-29T21:21:24.045Z,100106.72
2022-10-29T21:23:52.608Z,100115.44
2022-10-29T21:26:25.202Z,100111.06
2022-10-29T21:28:54.929Z,100102.25
2022-10-29T21:31:24.318Z,100112.75
2022-10-29T21:33:53.451Z,100118.91
2022-10-29T21:36:22.708Z,100122.41
2022-10-29T21:38:51.610Z,100122.41
2022-10-29T21:41:20.098Z,100132.03
2022-10-29T21:43:50.070Z,100120.66
2022-10-29T21:46:18.544Z,100126.78
2022-10-29T21:48:47.137Z,100133.78
2022-10-29T21:51:17.154Z,100121.53
2022-10-29T21:53:45.662Z,100127.69
2022-10-29T21:56:16.397Z,100132.03
2022-10-29T21:58:45.172Z,100133.78
2022-10-29T22:01:17.064Z,100132.94
2022-10-29T22:03:47.986Z,100132.91
2022-10-29T22:06:18.964Z,100129.41
2022-10-29T22:08:48.819Z,100129.38
2022-10-29T22:11:17.249Z,100132.88
2022-10-29T22:13:45.804Z,100137.19
2022-10-29T22:16:16.159Z,100138.97
2022-10-29T22:18:44.758Z,100124.06
2022-10-29T22:21:15.881Z,100123.16
2022-10-29T22:23:46.576Z,100126.66
2022-10-29T22:26:17.297Z,100131.00
2022-10-29T22:28:47.141Z,100127.50
2022-10-29T22:31:18.857Z,100127.50
2022-10-29T22:33:48.721Z,100134.47
2022-10-29T22:36:19.837Z,100123.06
2022-10-29T22:38:48.554Z,100130.06
2022-10-29T22:41:18.898Z,100126.59
2022-10-29T22:43:47.360Z,100130.06
2022-10-29T22:46:19.162Z,100130.94
2022-10-29T22:48:48.485Z,100130.91
2022-10-29T22:51:19.233Z,100131.75
2022-10-29T22:53:47.899Z,100129.09
2022-10-29T22:56:18.111Z,100124.75
2022-10-29T22:58:47.506Z,100122.09
2022-10-29T23:01:19.729Z,100125.56
2022-10-29T23:03:48.686Z,100125.56
2022-10-29T23:06:19.510Z,100123.78
2022-10-29T23:08:49.202Z,100119.41
2022-10-29T23:11:20.185Z,100123.75
2022-10-29T23:13:49.556Z,100129.88
2022-10-29T23:16:19.394Z,100132.44
2022-10-29T23:18:50.418Z,100134.22
2022-10-29T23:21:19.554Z,100134.19
2022-10-29T23:23:49.725Z,100137.66
2022-10-29T23:26:19.119Z,100126.25
2022-10-29T23:28:49.099Z,100124.47
2022-10-29T23:31:20.959Z,100129.72
2022-10-29T23:33:52.075Z,100131.47
2022-10-29T23:36:22.699Z,100126.19
2022-10-29T23:38:56.345Z,100130.53
2022-10-29T23:41:24.979Z,100128.78
2022-10-29T23:43:53.423Z,100123.53
2022-10-29T23:46:24.055Z,100127.88
2022-10-29T23:48:52.573Z,100134.84
2022-10-29T23:51:21.254Z,100123.47
2022-10-29T23:53:53.100Z,100124.31
2022-10-29T23:56:25.059Z,100134.81
2022-10-29T23:58:53.745Z,100120.81
